Time;durP1;ratioP1;P1;durP2;ratioP2;P2;SDS_P1;SDS_P2;PMS_P1;PMS_P2;Temp;Humidity;BMP_temperature;BMP_pressure;BME280_temperature;BME280_humidity;BME280_pressure;Samples;Min_cycle;Max_cycle;Signal;HPM_P1;HPM_P2
2022/04/22 00:00:23;;;;;;;4.10;1.67;;;;;;;;;;5094565;28;20226;-44
2022/04/22 00:03:05;;;;;;;1.30;1.20;;;;;;;;;;5095274;28;20198;-44
2022/04/22 00:05:32;;;;;;;2.92;1.85;;;;;;;;;;5094925;28;20693;-42
2022/04/22 00:08:00;;;;;;;2.03;1.63;;;;;;;;;;5094701;28;20527;-43
2022/04/22 00:10:27;;;;;;;1.17;1.08;;;;;;;;;;5094617;28;20645;-44
2022/04/22 00:12:55;;;;;;;1.23;1.10;;;;;;;;;;5094862;28;20267;-41
2022/04/22 00:15:22;;;;;;;3.95;1.50;;;;;;;;;;5094658;28;20629;-41
2022/04/22 00:17:50;;;;;;;2.50;1.92;;;;;;;;;;5094518;28;20203;-43
2022/04/22 00:20:17;;;;;;;2.10;1.60;;;;;;;;;;5094816;28;20280;-45
2022/04/22 00:22:45;;;;;;;2.67;1.80;;;;;;;;;;5098556;28;20213;-43
2022/04/22 00:25:13;;;;;;;2.67;2.17;;;;;;;;;;5098945;28;20230;-42
2022/04/22 00:27:41;;;;;;;2.10;1.50;;;;;;;;;;5098394;28;20209;-45
2022/04/22 00:30:11;;;;;;;2.23;1.53;;;;;;;;;;5097655;28;20211;-43
2022/04/22 00:32:39;;;;;;;1.83;1.50;;;;;;;;;;5098402;28;20199;-44
2022/04/22 00:35:08;;;;;;;5.37;1.60;;;;;;;;;;5098474;28;20203;-42
2022/04/22 00:37:36;;;;;;;3.53;2.73;;;;;;;;;;5098480;28;20230;-41
2022/04/22 00:40:03;;;;;;;3.43;2.70;;;;;;;;;;5098248;28;20237;-44
2022/04/22 00:42:31;;;;;;;3.03;2.07;;;;;;;;;;5098452;28;20210;-43
2022/04/22 00:44:59;;;;;;;2.90;1.83;;;;;;;;;;5098088;28;20259;-42
2022/04/22 00:47:26;;;;;;;1.35;0.85;;;;;;;;;;5098184;28;20203;-43
2022/04/22 00:49:53;;;;;;;3.23;2.03;;;;;;;;;;5098043;28;20220;-41
2022/04/22 00:52:21;;;;;;;3.17;1.47;;;;;;;;;;5097887;28;20198;-42
2022/04/22 00:54:48;;;;;;;7.77;2.40;;;;;;;;;;5098250;28;20250;-42
2022/04/22 00:57:18;;;;;;;2.73;1.57;;;;;;;;;;5098053;28;20202;-42
2022/04/22 00:59:46;;;;;;;3.00;2.20;;;;;;;;;;5098066;28;20298;-41
2022/04/22 01:02:14;;;;;;;1.37;1.07;;;;;;;;;;5098078;28;20199;-44
2022/04/22 01:10:12;;;;;;;3.00;2.13;;;;;;;;;;5097714;28;20568;-41
2022/04/22 01:12:40;;;;;;;2.87;1.80;;;;;;;;;;5097505;28;20621;-43
2022/04/22 01:15:08;;;;;;;2.23;1.83;;;;;;;;;;5096989;28;20567;-43
2022/04/22 01:17:36;;;;;;;1.40;1.00;;;;;;;;;;5096742;28;20633;-40
2022/04/22 01:20:04;;;;;;;3.37;1.90;;;;;;;;;;5097554;28;20222;-43
2022/04/22 01:22:31;;;;;;;2.97;2.20;;;;;;;;;;5097894;28;20264;-43
2022/04/22 01:25:00;;;;;;;3.03;1.80;;;;;;;;;;5096578;28;20213;-41
2022/04/22 01:27:31;;;;;;;4.03;2.60;;;;;;;;;;5097324;28;20636;-40
2022/04/22 01:30:01;;;;;;;4.43;2.60;;;;;;;;;;5097358;28;20641;-41
2022/04/22 01:32:29;;;;;;;3.63;2.40;;;;;;;;;;5096538;28;20256;-40
2022/04/22 01:34:56;;;;;;;6.67;2.40;;;;;;;;;;5097430;28;20281;-42
2022/04/22 01:37:23;;;;;;;3.73;3.00;;;;;;;;;;5097079;28;20195;-41
2022/04/22 01:39:51;;;;;;;5.50;2.90;;;;;;;;;;5097746;28;20226;-41
2022/04/22 01:42:18;;;;;;;3.37;2.60;;;;;;;;;;5097104;28;20218;-42
2022/04/22 01:44:46;;;;;;;3.70;2.67;;;;;;;;;;5097000;28;20209;-41
2022/04/22 01:47:14;;;;;;;5.03;3.47;;;;;;;;;;5097540;28;20207;-40
2022/04/22 01:49:41;;;;;;;4.73;3.03;;;;;;;;;;5097001;28;20210;-43
2022/04/22 01:52:08;;;;;;;5.20;3.97;;;;;;;;;;5096860;28;20213;-42
2022/04/22 01:54:36;;;;;;;5.30;3.80;;;;;;;;;;5096837;28;20230;-41
2022/04/22 01:57:04;;;;;;;5.63;3.43;;;;;;;;;;5096823;28;20198;-40
2022/04/22 01:59:31;;;;;;;5.60;4.43;;;;;;;;;;5097122;28;20314;-42
2022/04/22 02:01:59;;;;;;;6.23;4.70;;;;;;;;;;5096884;28;20206;-41
2022/04/22 02:04:26;;;;;;;6.17;4.60;;;;;;;;;;5096863;28;20688;-42
2022/04/22 02:06:53;;;;;;;7.07;4.93;;;;;;;;;;5096710;28;20199;-42
2022/04/22 02:09:21;;;;;;;7.83;5.73;;;;;;;;;;5096731;28;20210;-42
2022/04/22 02:11:48;;;;;;;10.03;5.10;;;;;;;;;;5096529;28;20584;-41
2022/04/22 02:14:15;;;;;;;6.77;4.97;;;;;;;;;;5096688;28;20211;-41
2022/04/22 02:16:42;;;;;;;7.70;5.60;;;;;;;;;;5096782;28;20202;-41
2022/04/22 02:19:09;;;;;;;7.37;5.77;;;;;;;;;;5096065;28;20229;-42
2022/04/22 02:21:38;;;;;;;11.70;6.37;;;;;;;;;;5096560;28;20202;-41
2022/04/22 02:24:06;;;;;;;8.47;6.13;;;;;;;;;;5096507;28;20220;-41
2022/04/22 02:28:31;;;;;;;10.30;6.73;;;;;;;;;;5096158;28;20198;-41
2022/04/22 02:29:21;;;;;;;7.57;5.80;;;;;;;;;;5096394;28;20636;-42
2022/04/22 02:31:52;;;;;;;11.40;7.67;;;;;;;;;;5096236;28;20207;-41
2022/04/22 02:34:20;;;;;;;16.20;6.17;;;;;;;;;;5096124;28;20203;-40
2022/04/22 02:36:48;;;;;;;10.40;7.60;;;;;;;;;;5096249;28;20311;-42
2022/04/22 02:39:15;;;;;;;11.23;8.23;;;;;;;;;;5095977;28;20219;-42
2022/04/22 02:47:14;;;;;;;13.60;8.27;;;;;;;;;;5095896;28;20210;-42
2022/04/22 02:49:44;;;;;;;11.57;8.23;;;;;;;;;;5094652;28;20206;-43
2022/04/22 02:52:12;;;;;;;16.37;11.07;;;;;;;;;;5094589;28;20298;-43
2022/04/22 02:54:39;;;;;;;18.93;10.80;;;;;;;;;;5095109;28;20235;-42
2022/04/22 02:57:07;;;;;;;19.00;12.30;;;;;;;;;;5095737;28;20226;-40
2022/04/22 02:59:36;;;;;;;15.80;11.20;;;;;;;;;;5093837;28;20223;-41
2022/04/22 03:02:03;;;;;;;16.53;9.93;;;;;;;;;;5094300;28;20224;-42
2022/04/22 03:04:31;;;;;;;26.27;13.70;;;;;;;;;;5094335;28;20637;-40
2022/04/22 03:06:58;;;;;;;22.60;14.83;;;;;;;;;;5095293;28;20210;-41
2022/04/22 03:09:25;;;;;;;21.00;14.90;;;;;;;;;;5095161;28;20259;-41
2022/04/22 03:11:53;;;;;;;26.23;16.30;;;;;;;;;;5095270;28;20232;-42
2022/04/22 03:14:20;;;;;;;23.23;16.63;;;;;;;;;;5095075;28;20263;-43
2022/04/22 03:16:47;;;;;;;24.73;16.30;;;;;;;;;;5095004;28;20205;-42
2022/04/22 03:19:14;;;;;;;26.97;15.97;;;;;;;;;;5094866;28;20203;-41
2022/04/22 03:21:41;;;;;;;25.67;18.43;;;;;;;;;;5093933;28;20206;-41
2022/04/22 03:24:09;;;;;;;25.37;15.93;;;;;;;;;;5095166;28;20211;-43
2022/04/22 03:26:37;;;;;;;30.83;20.43;;;;;;;;;;5095160;28;20202;-40
2022/04/22 03:29:04;;;;;;;27.63;18.90;;;;;;;;;;5094755;28;20625;-43
2022/04/22 03:31:31;;;;;;;31.60;20.87;;;;;;;;;;5094757;28;20203;-41
2022/04/22 03:33:58;;;;;;;30.60;19.77;;;;;;;;;;5094018;28;20206;-41
2022/04/22 03:36:26;;;;;;;34.30;22.73;;;;;;;;;;5095067;28;20218;-41
2022/04/22 03:38:53;;;;;;;35.10;22.93;;;;;;;;;;5094667;28;20540;-41
2022/04/22 03:41:20;;;;;;;33.43;23.37;;;;;;;;;;5094730;28;20299;-41
2022/04/22 03:43:47;;;;;;;32.57;23.17;;;;;;;;;;5094186;28;20686;-41
2022/04/22 03:46:15;;;;;;;35.20;24.87;;;;;;;;;;5094629;28;20748;-40
2022/04/22 03:48:42;;;;;;;30.40;21.13;;;;;;;;;;5094728;28;20191;-41
2022/04/22 03:51:09;;;;;;;26.87;17.77;;;;;;;;;;5094497;28;20655;-41
2022/04/22 03:53:39;;;;;;;29.10;21.67;;;;;;;;;;5094443;28;20230;-40
2022/04/22 03:58:52;;;;;;;29.23;21.33;;;;;;;;;;5094673;28;20191;-43
2022/04/22 04:01:20;;;;;;;23.97;16.30;;;;;;;;;;5094496;28;20246;-41
2022/04/22 04:03:47;;;;;;;30.47;22.80;;;;;;;;;;5088368;28;20222;-42
2022/04/22 04:06:15;;;;;;;23.33;18.03;;;;;;;;;;5093673;28;20249;-48
2022/04/22 04:15:57;;;;;;;26.03;18.90;;;;;;;;;;5093624;28;20293;-41
2022/04/22 04:17:02;;;;;;;25.03;19.33;;;;;;;;;;5093818;28;20223;-43
2022/04/22 04:25:02;;;;;;;28.00;22.27;;;;;;;;;;5073620;28;20223;-41
2022/04/22 04:27:29;;;;;;;27.23;20.93;;;;;;;;;;5073337;28;20772;-41
2022/04/22 04:29:56;;;;;;;26.57;16.07;;;;;;;;;;5074556;28;20230;-43
2022/04/22 04:32:24;;;;;;;25.30;20.20;;;;;;;;;;5072976;28;20239;-44
2022/04/22 04:34:51;;;;;;;19.63;14.93;;;;;;;;;;5073566;28;20751;-41
2022/04/22 04:37:18;;;;;;;22.40;17.40;;;;;;;;;;5073540;28;20231;-42
2022/04/22 04:39:45;;;;;;;19.63;13.03;;;;;;;;;;5073406;28;20243;-41
2022/04/22 04:42:12;;;;;;;27.70;19.77;;;;;;;;;;5073510;28;20300;-44
2022/04/22 04:44:40;;;;;;;20.57;16.00;;;;;;;;;;5086399;28;20226;-42
2022/04/22 04:47:07;;;;;;;25.97;17.87;;;;;;;;;;5092493;28;20226;-43
2022/04/22 04:49:34;;;;;;;23.03;18.43;;;;;;;;;;5092462;28;20222;-43
2022/04/22 04:52:01;;;;;;;21.90;16.27;;;;;;;;;;5093554;28;20218;-41
2022/04/22 04:54:29;;;;;;;21.30;15.77;;;;;;;;;;5092903;28;20247;-43
2022/04/22 04:56:56;;;;;;;21.17;15.77;;;;;;;;;;5091331;28;20235;-43
2022/04/22 04:59:23;;;;;;;27.47;19.83;;;;;;;;;;5088325;28;20218;-44
2022/04/22 05:01:50;;;;;;;23.20;18.00;;;;;;;;;;5091455;28;20234;-41
2022/04/22 05:04:17;;;;;;;22.97;18.57;;;;;;;;;;5090264;28;20288;-42
2022/04/22 05:06:44;;;;;;;16.77;10.00;;;;;;;;;;5092393;28;20609;-44
2022/04/22 05:09:11;;;;;;;25.40;19.70;;;;;;;;;;5092713;28;20229;-47
2022/04/22 05:11:39;;;;;;;19.60;16.43;;;;;;;;;;5095774;28;20245;-40
2022/04/22 05:14:07;;;;;;;27.93;18.87;;;;;;;;;;5095381;28;20230;-41
2022/04/22 05:16:34;;;;;;;10.37;7.03;;;;;;;;;;5094690;28;20838;-46
2022/04/22 05:19:01;;;;;;;20.97;16.07;;;;;;;;;;5094989;28;20530;-40
2022/04/22 05:21:28;;;;;;;20.13;15.80;;;;;;;;;;5095045;28;20222;-43
2022/04/22 05:23:55;;;;;;;20.67;16.40;;;;;;;;;;5095072;28;20757;-46
2022/04/22 05:26:24;;;;;;;5.90;4.77;;;;;;;;;;5094944;28;20565;-42
2022/04/22 05:28:51;;;;;;;15.23;11.13;;;;;;;;;;5095110;28;20229;-45
2022/04/22 05:34:03;;;;;;;10.60;8.13;;;;;;;;;;5092610;28;20234;-41
2022/04/22 05:36:30;;;;;;;13.97;9.67;;;;;;;;;;5093772;28;20275;-40
2022/04/22 05:38:57;;;;;;;16.27;12.03;;;;;;;;;;5095002;28;20272;-42
2022/04/22 05:41:24;;;;;;;16.03;12.77;;;;;;;;;;5094681;28;20235;-41
2022/04/22 05:43:51;;;;;;;10.80;7.67;;;;;;;;;;5094764;28;20219;-46
2022/04/22 05:46:18;;;;;;;14.70;11.73;;;;;;;;;;5094096;28;20685;-41
2022/04/22 05:48:46;;;;;;;11.17;8.43;;;;;;;;;;5094734;28;20288;-41
2022/04/22 05:51:14;;;;;;;15.70;12.33;;;;;;;;;;5094871;28;20221;-42
2022/04/22 05:53:44;;;;;;;22.50;17.13;;;;;;;;;;5091676;28;20318;-41
2022/04/22 05:56:11;;;;;;;20.37;16.23;;;;;;;;;;5094650;28;20229;-48
2022/04/22 05:58:38;;;;;;;14.73;10.33;;;;;;;;;;5094748;28;20211;-42
2022/04/22 06:01:05;;;;;;;16.53;14.30;;;;;;;;;;5093927;28;20225;-40
2022/04/22 06:03:33;;;;;;;15.10;12.63;;;;;;;;;;5094917;28;20593;-43
2022/04/22 06:06:00;;;;;;;17.43;14.03;;;;;;;;;;5089715;28;20335;-44
2022/04/22 06:11:13;;;;;;;14.90;11.73;;;;;;;;;;5091458;28;20222;-44
2022/04/22 06:13:40;;;;;;;8.57;6.20;;;;;;;;;;5094333;28;20743;-42
2022/04/22 06:16:11;;;;;;;14.53;12.10;;;;;;;;;;5093000;28;20534;-40
2022/04/22 06:18:39;;;;;;;16.10;10.77;;;;;;;;;;5092575;28;20214;-48
2022/04/22 06:21:06;;;;;;;14.10;9.63;;;;;;;;;;5092312;28;20234;-42
2022/04/22 06:23:34;;;;;;;11.23;7.97;;;;;;;;;;5094223;28;20245;-43
2022/04/22 06:26:01;;;;;;;7.83;5.73;;;;;;;;;;5091155;28;20687;-41
2022/04/22 06:28:28;;;;;;;3.90;3.30;;;;;;;;;;5094042;28;20210;-40
2022/04/22 06:31:02;;;;;;;8.50;6.25;;;;;;;;;;5091666;28;20241;-38
2022/04/22 06:33:30;;;;;;;5.00;3.75;;;;;;;;;;5095382;28;20227;-40
2022/04/22 06:36:01;;;;;;;7.00;6.13;;;;;;;;;;5094476;28;20556;-40
2022/04/22 06:38:29;;;;;;;7.03;4.00;;;;;;;;;;5095260;28;20223;-40
2022/04/22 06:46:28;;;;;;;7.80;5.50;;;;;;;;;;5095422;28;20230;-42
2022/04/22 06:48:56;;;;;;;5.40;3.78;;;;;;;;;;5094633;28;20245;-41
2022/04/22 06:51:25;;;;;;;5.17;4.03;;;;;;;;;;5089959;28;20223;-39
2022/04/22 06:53:52;;;;;;;5.60;4.20;;;;;;;;;;5074312;28;20300;-44
2022/04/22 06:56:26;;;;;;;4.90;4.13;;;;;;;;;;5075148;28;20223;-40
2022/04/22 06:58:54;;;;;;;6.53;4.78;;;;;;;;;;5074465;28;20551;-42
2022/04/22 07:01:22;;;;;;;9.15;6.80;;;;;;;;;;5074691;28;20235;-41
2022/04/22 07:04:09;;;;;;;7.00;5.47;;;;;;;;;;5090798;28;20690;-41
2022/04/22 07:06:38;;;;;;;8.05;6.93;;;;;;;;;;5092501;28;20303;-44
2022/04/22 07:09:05;;;;;;;9.20;6.93;;;;;;;;;;5093052;28;20578;-48
2022/04/22 07:11:35;;;;;;;8.02;7.22;;;;;;;;;;5093533;28;20222;-40
2022/04/22 07:14:02;;;;;;;7.88;6.47;;;;;;;;;;5090339;28;20219;-43
2022/04/22 07:16:30;;;;;;;7.90;7.07;;;;;;;;;;5093014;28;20222;-43
2022/04/22 07:18:59;;;;;;;5.65;4.63;;;;;;;;;;5092904;28;20558;-44
2022/04/22 07:21:27;;;;;;;6.43;4.63;;;;;;;;;;5093384;28;20237;-43
2022/04/22 07:23:55;;;;;;;5.90;4.65;;;;;;;;;;5094242;28;20572;-45
2022/04/22 07:26:23;;;;;;;9.03;6.93;;;;;;;;;;5093179;28;20275;-43
2022/04/22 07:28:51;;;;;;;8.02;6.93;;;;;;;;;;5091816;28;20250;-44
2022/04/22 07:31:19;;;;;;;8.48;7.32;;;;;;;;;;5091789;28;20219;-44
2022/04/22 07:33:49;;;;;;;7.30;6.05;;;;;;;;;;5092705;28;20226;-43
2022/04/22 07:36:17;;;;;;;9.20;6.95;;;;;;;;;;5092719;28;20347;-47
2022/04/22 07:38:44;;;;;;;4.32;2.90;;;;;;;;;;5092596;28;20240;-43
2022/04/22 07:41:17;;;;;;;6.78;4.47;;;;;;;;;;5091710;28;20299;-43
2022/04/22 07:46:48;;;;;;;8.73;6.80;;;;;;;;;;5083838;28;20738;-43
2022/04/22 07:49:17;;;;;;;9.07;8.02;;;;;;;;;;5090440;28;20305;-46
2022/04/22 07:51:44;;;;;;;9.70;6.97;;;;;;;;;;5092222;28;20214;-43
2022/04/22 07:54:14;;;;;;;9.65;7.97;;;;;;;;;;5091722;28;20238;-44
2022/04/22 07:56:42;;;;;;;16.25;9.18;;;;;;;;;;5091003;28;20249;-44
2022/04/22 07:59:11;;;;;;;8.57;6.35;;;;;;;;;;5092120;28;20246;-44
2022/04/22 08:01:38;;;;;;;7.57;4.10;;;;;;;;;;5092803;28;20233;-43
2022/04/22 08:04:06;;;;;;;9.88;5.28;;;;;;;;;;5092308;28;20569;-44
2022/04/22 08:06:34;;;;;;;9.03;7.50;;;;;;;;;;5092065;28;20218;-43
2022/04/22 08:09:02;;;;;;;9.70;7.70;;;;;;;;;;5092361;28;20222;-46
2022/04/22 08:11:30;;;;;;;4.88;3.42;;;;;;;;;;5090049;28;20215;-43
2022/04/22 08:13:59;;;;;;;10.25;8.68;;;;;;;;;;5117267;28;20609;-44
2022/04/22 08:16:26;;;;;;;10.83;8.60;;;;;;;;;;5083553;28;20673;-42
2022/04/22 08:18:54;;;;;;;12.18;10.20;;;;;;;;;;5082210;28;20290;-42
2022/04/22 08:21:32;;;;;;;12.63;10.07;;;;;;;;;;5085317;28;20248;-42
2022/04/22 08:24:03;;;;;;;11.68;9.25;;;;;;;;;;5092543;28;20283;-42
2022/04/22 08:26:32;;;;;;;12.30;6.93;;;;;;;;;;5089967;28;20225;-42
2022/04/22 08:28:59;;;;;;;14.27;10.67;;;;;;;;;;5092383;28;20226;-43
2022/04/22 08:31:26;;;;;;;13.90;10.40;;;;;;;;;;5092229;28;20272;-42
2022/04/22 08:33:56;;;;;;;10.83;8.60;;;;;;;;;;5082061;28;20283;-44
2022/04/22 08:36:27;;;;;;;12.27;10.02;;;;;;;;;;5091563;28;20285;-44
2022/04/22 08:38:55;;;;;;;10.30;7.35;;;;;;;;;;5092693;28;20222;-47
2022/04/22 08:41:22;;;;;;;11.05;8.75;;;;;;;;;;5092758;28;20292;-43
2022/04/22 08:43:56;;;;;;;11.98;7.20;;;;;;;;;;5095560;28;20675;-42
2022/04/22 08:51:56;;;;;;;8.95;7.68;;;;;;;;;;5094895;28;20202;-42
2022/04/22 08:54:29;;;;;;;7.50;4.72;;;;;;;;;;5096760;28;20234;-42
2022/04/22 08:56:56;;;;;;;8.35;5.95;;;;;;;;;;5096354;28;20195;-42
2022/04/22 08:59:25;;;;;;;9.75;8.52;;;;;;;;;;5096665;28;20629;-42
2022/04/22 09:01:56;;;;;;;7.07;5.93;;;;;;;;;;5097128;28;20249;-43
2022/04/22 09:04:23;;;;;;;10.95;8.00;;;;;;;;;;5096369;28;20278;-42
2022/04/22 09:06:52;;;;;;;9.98;7.57;;;;;;;;;;5093384;28;20618;-40
2022/04/22 09:09:19;;;;;;;10.85;7.28;;;;;;;;;;5083561;28;20241;-40
2022/04/22 09:11:47;;;;;;;12.02;9.57;;;;;;;;;;5096773;28;20306;-40
2022/04/22 09:14:20;;;;;;;11.65;9.00;;;;;;;;;;5096546;28;20237;-39
2022/04/22 09:16:49;;;;;;;10.45;8.32;;;;;;;;;;5096630;28;20614;-39
2022/04/22 09:19:19;;;;;;;11.27;9.07;;;;;;;;;;5096030;28;20226;-39
2022/04/22 09:21:56;;;;;;;10.95;9.15;;;;;;;;;;5096586;28;20737;-45
2022/04/22 09:24:24;;;;;;;12.68;10.30;;;;;;;;;;5076592;28;20261;-39
2022/04/22 09:27:08;;;;;;;11.23;9.32;;;;;;;;;;5076708;28;20227;-39
2022/04/22 09:29:54;;;;;;;12.90;9.60;;;;;;;;;;5093111;28;20218;-40
2022/04/22 09:32:26;;;;;;;10.85;8.80;;;;;;;;;;5090624;28;20233;-41
2022/04/22 09:34:58;;;;;;;9.52;8.13;;;;;;;;;;5094410;28;20221;-40
2022/04/22 09:42:59;;;;;;;10.50;8.77;;;;;;;;;;5088991;28;20291;-48
2022/04/22 09:45:36;;;;;;;9.32;7.00;;;;;;;;;;5094580;28;20223;-43
2022/04/22 09:48:19;;;;;;;10.07;8.00;;;;;;;;;;5094021;28;20671;-42
2022/04/22 09:50:54;;;;;;;10.15;8.00;;;;;;;;;;5094525;28;20186;-46
2022/04/22 09:53:35;;;;;;;8.23;7.00;;;;;;;;;;5086697;28;20178;-43
2022/04/22 09:56:07;;;;;;;8.90;7.63;;;;;;;;;;5093308;28;20624;-42
2022/04/22 09:58:36;;;;;;;9.15;7.53;;;;;;;;;;5095423;28;20539;-45
2022/04/22 10:01:04;;;;;;;7.20;5.57;;;;;;;;;;5095593;28;20273;-43
2022/04/22 10:03:37;;;;;;;8.30;6.90;;;;;;;;;;5095442;28;20260;-42
2022/04/22 10:06:05;;;;;;;10.32;8.10;;;;;;;;;;5093522;28;20287;-44
2022/04/22 10:08:36;;;;;;;12.93;9.35;;;;;;;;;;5095176;28;20191;-43
2022/04/22 10:11:05;;;;;;;9.77;7.72;;;;;;;;;;5092594;28;20183;-43
2022/04/22 10:13:40;;;;;;;11.00;9.15;;;;;;;;;;5095051;28;20583;-43
2022/04/22 10:16:11;;;;;;;10.10;7.85;;;;;;;;;;5093459;28;20594;-43
2022/04/22 10:18:40;;;;;;;12.48;9.75;;;;;;;;;;5094871;28;20191;-43
2022/04/22 10:21:07;;;;;;;12.23;9.48;;;;;;;;;;5095159;28;20555;-43
2022/04/22 10:23:42;;;;;;;10.25;9.15;;;;;;;;;;5092665;28;20288;-43
2022/04/22 10:26:09;;;;;;;11.73;10.25;;;;;;;;;;5094143;28;20528;-43
2022/04/22 10:28:38;;;;;;;11.02;9.45;;;;;;;;;;5094604;28;20256;-42
2022/04/22 10:31:05;;;;;;;11.05;8.75;;;;;;;;;;5094977;28;20342;-46
2022/04/22 10:33:43;;;;;;;10.55;9.00;;;;;;;;;;5095264;28;20227;-43
2022/04/22 10:36:19;;;;;;;10.85;8.93;;;;;;;;;;5094889;28;20183;-43
2022/04/22 10:38:50;;;;;;;12.82;9.90;;;;;;;;;;5092716;28;20182;-43
2022/04/22 10:41:19;;;;;;;10.77;9.60;;;;;;;;;;5094725;28;20195;-48
2022/04/22 10:49:53;;;;;;;10.73;8.40;;;;;;;;;;5090429;28;20195;-45
2022/04/22 10:52:22;;;;;;;10.23;8.10;;;;;;;;;;5087959;28;20663;-43
2022/04/22 10:54:55;;;;;;;12.52;8.23;;;;;;;;;;5094395;28;20315;-44
2022/04/22 10:57:29;;;;;;;9.50;7.97;;;;;;;;;;5092898;28;20194;-42
2022/04/22 11:00:11;;;;;;;9.00;7.03;;;;;;;;;;5095555;28;20186;-42
2022/04/22 11:02:42;;;;;;;10.63;9.07;;;;;;;;;;5095850;28;20238;-42
2022/04/22 11:07:58;;;;;;;9.90;7.72;;;;;;;;;;5092514;28;20226;-46
2022/04/22 11:10:27;;;;;;;8.38;6.50;;;;;;;;;;5088558;28;20275;-44
2022/04/22 11:12:55;;;;;;;11.20;9.40;;;;;;;;;;5091892;28;20203;-41
2022/04/22 11:15:44;;;;;;;12.32;9.23;;;;;;;;;;5094382;28;20190;-42
2022/04/22 11:18:15;;;;;;;10.55;8.93;;;;;;;;;;5093816;28;20187;-43
2022/04/22 11:20:43;;;;;;;13.48;9.02;;;;;;;;;;5093859;28;20191;-42
2022/04/22 11:23:14;;;;;;;13.55;10.82;;;;;;;;;;5093474;28;20214;-43
2022/04/22 11:25:42;;;;;;;11.43;8.95;;;;;;;;;;5094138;28;20248;-43
2022/04/22 11:28:10;;;;;;;8.98;7.78;;;;;;;;;;5091240;28;20559;-43
2022/04/22 11:30:37;;;;;;;9.70;7.85;;;;;;;;;;5094223;28;20194;-42
2022/04/22 11:33:12;;;;;;;8.73;7.03;;;;;;;;;;5093902;28;20202;-44
2022/04/22 11:35:40;;;;;;;11.25;7.60;;;;;;;;;;5093964;28;20559;-43
2022/04/22 11:38:08;;;;;;;5.55;4.80;;;;;;;;;;5090688;28;20209;-42
2022/04/22 11:40:39;;;;;;;6.38;5.28;;;;;;;;;;5093570;28;20628;-43
2022/04/22 11:43:06;;;;;;;5.00;4.45;;;;;;;;;;5092568;28;20207;-43
2022/04/22 11:45:51;;;;;;;3.45;2.65;;;;;;;;;;5094032;28;20202;-40
2022/04/22 11:48:20;;;;;;;5.10;4.35;;;;;;;;;;5087678;28;20223;-41
2022/04/22 11:50:48;;;;;;;4.72;4.00;;;;;;;;;;5094099;28;20230;-40
2022/04/22 11:53:20;;;;;;;5.10;4.10;;;;;;;;;;5093345;28;20227;-41
2022/04/22 11:55:48;;;;;;;5.60;3.80;;;;;;;;;;5093933;28;20226;-41
2022/04/22 11:58:20;;;;;;;4.93;4.05;;;;;;;;;;5093930;28;20218;-43
2022/04/22 12:06:22;;;;;;;4.40;3.85;;;;;;;;;;5093828;28;20234;-40
2022/04/22 12:09:00;;;;;;;5.38;4.07;;;;;;;;;;5059076;28;20253;-40
2022/04/22 12:11:27;;;;;;;5.00;4.00;;;;;;;;;;5093882;28;20230;-42
2022/04/22 12:13:55;;;;;;;3.67;3.38;;;;;;;;;;5093787;28;20227;-40
2022/04/22 12:16:24;;;;;;;6.10;5.40;;;;;;;;;;5093948;28;20222;-40
2022/04/22 12:18:56;;;;;;;7.50;5.53;;;;;;;;;;5097720;28;20222;-40
2022/04/22 12:21:24;;;;;;;5.68;4.50;;;;;;;;;;5097896;28;20226;-42
2022/04/22 12:23:56;;;;;;;7.22;6.22;;;;;;;;;;5097865;28;20685;-40
2022/04/22 12:26:25;;;;;;;8.73;5.28;;;;;;;;;;5097928;28;20234;-40
2022/04/22 12:29:12;;;;;;;6.68;5.13;;;;;;;;;;5098008;28;20287;-39
2022/04/22 12:31:49;;;;;;;7.20;5.10;;;;;;;;;;5097724;28;20264;-40
2022/04/22 12:34:34;;;;;;;9.95;6.85;;;;;;;;;;5096741;28;20230;-43
2022/04/22 12:37:03;;;;;;;9.13;7.78;;;;;;;;;;5097287;28;20258;-42
2022/04/22 12:39:33;;;;;;;9.70;7.88;;;;;;;;;;5096175;28;20665;-41
2022/04/22 12:42:00;;;;;;;10.43;8.38;;;;;;;;;;5092738;28;20603;-43
2022/04/22 12:44:28;;;;;;;10.05;8.32;;;;;;;;;;5091246;28;20283;-44
2022/04/22 12:52:58;;;;;;;11.25;8.13;;;;;;;;;;5088459;28;20228;-45
2022/04/22 12:55:25;;;;;;;9.20;6.93;;;;;;;;;;5092817;28;20227;-44
2022/04/22 12:57:58;;;;;;;10.82;8.50;;;;;;;;;;5093231;28;20574;-46
2022/04/22 13:00:26;;;;;;;10.20;8.88;;;;;;;;;;5089520;28;20226;-41
2022/04/22 13:03:09;;;;;;;12.75;8.82;;;;;;;;;;5086954;28;20226;-41
2022/04/22 13:05:38;;;;;;;12.05;9.60;;;;;;;;;;5089787;28;20692;-41
2022/04/22 13:08:09;;;;;;;9.88;8.35;;;;;;;;;;5090992;28;20265;-43
2022/04/22 13:10:37;;;;;;;10.82;8.82;;;;;;;;;;5083412;28;20211;-42
2022/04/22 13:13:09;;;;;;;10.23;7.18;;;;;;;;;;5092188;28;20249;-42
2022/04/22 13:15:37;;;;;;;10.23;6.47;;;;;;;;;;5087678;28;20226;-44
2022/04/22 13:18:04;;;;;;;11.23;8.18;;;;;;;;;;5085418;28;20235;-42
2022/04/22 13:20:31;;;;;;;11.38;9.13;;;;;;;;;;5087232;28;20227;-42
2022/04/22 13:22:58;;;;;;;10.20;7.57;;;;;;;;;;5088825;28;20225;-45
2022/04/22 13:25:25;;;;;;;11.68;7.80;;;;;;;;;;5091022;28;20234;-45
2022/04/22 13:27:53;;;;;;;10.63;7.85;;;;;;;;;;5092286;28;20218;-44
2022/04/22 13:30:20;;;;;;;11.65;8.85;;;;;;;;;;5086057;28;20229;-41
2022/04/22 13:32:47;;;;;;;12.32;7.68;;;;;;;;;;5087355;28;20219;-42
2022/04/22 13:35:14;;;;;;;7.82;5.35;;;;;;;;;;5087352;28;20735;-42
2022/04/22 13:37:42;;;;;;;13.18;7.15;;;;;;;;;;5087940;28;20222;-43
2022/04/22 13:40:09;;;;;;;9.20;6.47;;;;;;;;;;5088871;28;20556;-41
2022/04/22 13:42:36;;;;;;;8.95;7.43;;;;;;;;;;5091965;28;20688;-43
2022/04/22 13:53:42;;;;;;;8.13;6.55;;;;;;;;;;5068666;28;20231;-44
2022/04/22 13:56:09;;;;;;;12.05;7.53;;;;;;;;;;5085887;28;20563;-41
2022/04/22 13:58:38;;;;;;;8.15;5.53;;;;;;;;;;5089079;28;20222;-44
2022/04/22 14:01:05;;;;;;;12.75;7.38;;;;;;;;;;5092508;28;20674;-41
2022/04/22 14:03:32;;;;;;;10.57;6.82;;;;;;;;;;5093141;28;20234;-43
2022/04/22 14:06:00;;;;;;;8.07;6.25;;;;;;;;;;5094991;28;20218;-42
2022/04/22 14:08:27;;;;;;;6.45;4.40;;;;;;;;;;5092376;28;20234;-45
2022/04/22 14:10:55;;;;;;;9.52;5.85;;;;;;;;;;5094155;28;20684;-41
2022/04/22 14:13:22;;;;;;;7.93;6.38;;;;;;;;;;5094053;28;20552;-42
2022/04/22 14:15:49;;;;;;;8.20;6.38;;;;;;;;;;5092506;28;20353;-42
2022/04/22 14:18:17;;;;;;;7.22;6.07;;;;;;;;;;5088719;28;20728;-42
2022/04/22 14:20:44;;;;;;;10.13;7.93;;;;;;;;;;5092572;28;20236;-42
2022/04/22 14:23:12;;;;;;;7.90;5.22;;;;;;;;;;5092932;28;20233;-44
2022/04/22 14:25:39;;;;;;;9.45;6.95;;;;;;;;;;5094114;28;20218;-42
2022/04/22 14:28:06;;;;;;;9.80;6.97;;;;;;;;;;5092621;28;20210;-41
2022/04/22 14:30:33;;;;;;;8.15;5.57;;;;;;;;;;5094021;28;20242;-41
2022/04/22 14:33:01;;;;;;;11.32;8.60;;;;;;;;;;5092629;28;20233;-41
2022/04/22 14:35:28;;;;;;;12.32;9.57;;;;;;;;;;5092990;28;20222;-44
2022/04/22 14:37:57;;;;;;;9.25;6.20;;;;;;;;;;5091093;28;20574;-41
2022/04/22 14:40:24;;;;;;;7.43;5.97;;;;;;;;;;5092440;28;20221;-41
2022/04/22 14:42:51;;;;;;;7.85;6.22;;;;;;;;;;5093341;28;20222;-41
2022/04/22 14:45:19;;;;;;;6.72;5.63;;;;;;;;;;5093911;28;20368;-47
2022/04/22 14:47:56;;;;;;;9.00;6.85;;;;;;;;;;5093297;28;20218;-41
2022/04/22 14:50:23;;;;;;;10.02;7.50;;;;;;;;;;5093942;28;20214;-43
2022/04/22 14:52:50;;;;;;;8.60;6.63;;;;;;;;;;5093432;28;20238;-42
2022/04/22 14:55:18;;;;;;;7.53;6.68;;;;;;;;;;5093896;28;20242;-41
2022/04/22 14:57:45;;;;;;;7.82;5.95;;;;;;;;;;5093450;28;20233;-46
2022/04/22 15:00:13;;;;;;;8.70;6.65;;;;;;;;;;5092473;28;20283;-42
2022/04/22 15:02:40;;;;;;;9.68;6.75;;;;;;;;;;5092327;28;20661;-44
2022/04/22 15:05:08;;;;;;;9.40;7.20;;;;;;;;;;5092743;28;20268;-41
2022/04/22 15:07:36;;;;;;;7.68;6.35;;;;;;;;;;5086391;28;20225;-42
2022/04/22 15:10:04;;;;;;;7.95;6.43;;;;;;;;;;5093297;28;20210;-43
2022/04/22 15:12:32;;;;;;;10.27;7.78;;;;;;;;;;5093124;28;20238;-43
2022/04/22 15:14:59;;;;;;;10.25;6.45;;;;;;;;;;5094013;28;20681;-43
2022/04/22 15:25:57;;;;;;;146.02;63.65;;;;;;;;;;5095026;28;20630;-45
2022/04/22 15:28:24;;;;;;;11.32;7.35;;;;;;;;;;5094325;28;20242;-41
2022/04/22 15:31:02;;;;;;;9.88;7.18;;;;;;;;;;5092595;28;20600;-42
2022/04/22 15:33:29;;;;;;;45.22;21.73;;;;;;;;;;5093849;28;20240;-43
2022/04/22 15:36:01;;;;;;;11.27;7.35;;;;;;;;;;5094251;28;20245;-42
2022/04/22 15:38:36;;;;;;;8.82;6.35;;;;;;;;;;5093954;28;20248;-45
2022/04/22 15:41:07;;;;;;;9.93;6.78;;;;;;;;;;5094310;28;20225;-44
2022/04/22 15:43:42;;;;;;;7.90;5.68;;;;;;;;;;5092786;28;20257;-43
2022/04/22 15:46:10;;;;;;;7.03;5.28;;;;;;;;;;5090529;28;20730;-42
2022/04/22 15:48:38;;;;;;;31.55;17.05;;;;;;;;;;5076925;28;20210;-42
2022/04/22 15:51:06;;;;;;;5.05;4.35;;;;;;;;;;5093189;28;20275;-42
2022/04/22 15:53:34;;;;;;;5.28;4.40;;;;;;;;;;5093561;28;20218;-42
2022/04/22 15:56:01;;;;;;;4.88;4.00;;;;;;;;;;5093716;28;20223;-43
2022/04/22 15:58:29;;;;;;;4.90;3.92;;;;;;;;;;5093777;28;20222;-42
2022/04/22 16:00:56;;;;;;;7.10;4.63;;;;;;;;;;5093374;28;20279;-42
2022/04/22 16:03:25;;;;;;;6.72;4.95;;;;;;;;;;5093471;28;20245;-42
2022/04/22 16:05:52;;;;;;;7.43;4.80;;;;;;;;;;5093710;28;20740;-42
2022/04/22 16:08:20;;;;;;;9.20;6.57;;;;;;;;;;5093142;28;20223;-42
2022/04/22 16:10:47;;;;;;;6.70;5.03;;;;;;;;;;5093761;28;20222;-41